createdAt,value
2022-12-27T00:01:21.737Z,1.42
2022-12-27T00:05:05.219Z,1.55
2022-12-27T00:08:47.276Z,1.35
2022-12-27T00:12:29.195Z,1.60
2022-12-27T00:16:14.021Z,1.63
2022-12-27T00:19:56.006Z,1.52
2022-12-27T00:23:42.000Z,1.40
2022-12-27T00:27:23.996Z,1.70
2022-12-27T00:31:06.578Z,1.33
2022-12-27T00:34:48.546Z,1.50
2022-12-27T00:38:32.172Z,1.60
2022-12-27T00:42:14.088Z,1.17
2022-12-27T00:45:56.224Z,1.52
2022-12-27T00:49:38.227Z,1.77
2022-12-27T00:53:20.212Z,1.40
2022-12-27T00:57:02.131Z,1.50
2022-12-27T01:00:45.028Z,1.30
2022-12-27T01:04:27.105Z,1.30
2022-12-27T01:08:09.299Z,1.23
2022-12-27T01:11:51.257Z,1.20
2022-12-27T01:15:33.245Z,1.33
2022-12-27T01:19:15.276Z,1.20
2022-12-27T01:22:57.570Z,1.25
2022-12-27T01:26:39.547Z,1.50
2022-12-27T01:30:21.519Z,0.95
2022-12-27T01:34:03.480Z,1.17
2022-12-27T01:37:45.493Z,1.17
2022-12-27T01:41:52.826Z,1.23
2022-12-27T01:45:36.215Z,1.10
2022-12-27T01:49:18.517Z,1.80
2022-12-27T01:53:28.049Z,1.10
2022-12-27T01:57:11.247Z,1.52
2022-12-27T02:00:54.112Z,0.90
2022-12-27T02:04:36.150Z,1.10
2022-12-27T02:08:27.046Z,0.90
2022-12-27T02:12:10.185Z,0.80
2022-12-27T02:15:52.335Z,0.80
2022-12-27T02:19:56.131Z,0.90
2022-12-27T02:24:03.314Z,0.90
2022-12-27T02:28:22.851Z,1.00
2022-12-27T02:32:21.199Z,0.88
2022-12-27T02:36:12.218Z,0.70
2022-12-27T02:39:55.787Z,1.00
2022-12-27T02:43:56.290Z,0.93
2022-12-27T02:47:57.600Z,0.82
2022-12-27T02:52:27.071Z,0.73
2022-12-27T02:56:27.613Z,1.38
2022-12-27T03:00:35.447Z,0.80
2022-12-27T03:04:38.363Z,0.70
2022-12-27T03:08:31.918Z,1.10
2022-12-27T03:13:09.452Z,0.80
2022-12-27T03:17:02.294Z,1.50
2022-12-27T03:21:05.388Z,0.82
2022-12-27T03:25:06.485Z,0.70
2022-12-27T03:29:08.080Z,0.60
2022-12-27T03:33:14.597Z,0.70
2022-12-27T03:37:17.918Z,0.50
2022-12-27T03:41:21.813Z,0.60
2022-12-27T03:45:04.084Z,0.60
2022-12-27T03:49:03.363Z,0.98
2022-12-27T03:53:12.916Z,0.63
2022-12-27T03:56:57.723Z,0.50
2022-12-27T04:00:39.990Z,0.60
2022-12-27T04:04:22.043Z,0.65
2022-12-27T04:08:22.704Z,0.60
2022-12-27T04:12:23.221Z,0.60
2022-12-27T04:16:24.265Z,0.77
2022-12-27T04:20:24.981Z,1.25
2022-12-27T04:24:25.482Z,0.70
2022-12-27T04:28:25.917Z,0.60
2022-12-27T04:32:26.564Z,0.60
2022-12-27T04:36:09.095Z,0.50
2022-12-27T04:40:09.664Z,0.40
2022-12-27T04:44:10.261Z,0.47
2022-12-27T04:48:10.464Z,0.55
2022-12-27T04:52:11.085Z,0.88
2022-12-27T04:55:53.087Z,0.70
2022-12-27T04:59:53.612Z,0.60
2022-12-27T05:03:36.644Z,0.80
2022-12-27T05:07:37.242Z,0.43
2022-12-27T05:11:37.797Z,0.63
2022-12-27T05:15:19.738Z,0.80
2022-12-27T05:19:01.735Z,0.60
2022-12-27T05:23:03.714Z,0.55
2022-12-27T05:26:45.698Z,0.60
2022-12-27T05:30:27.695Z,0.60
2022-12-27T05:34:09.755Z,0.43
2022-12-27T05:37:55.079Z,0.65
2022-12-27T05:41:37.270Z,0.68
2022-12-27T05:45:20.154Z,0.50
2022-12-27T05:49:02.663Z,0.77
2022-12-27T05:52:44.600Z,0.50
2022-12-27T05:56:26.609Z,0.50
2022-12-27T06:00:12.385Z,0.60
2022-12-27T06:03:54.460Z,0.57
2022-12-27T06:07:38.261Z,0.75
2022-12-27T06:11:20.288Z,0.70
2022-12-27T06:15:02.793Z,0.90
2022-12-27T06:18:45.665Z,0.68
2022-12-27T06:22:27.559Z,1.00
2022-12-27T06:26:13.638Z,0.50
2022-12-27T06:29:55.567Z,0.60
2022-12-27T06:33:37.568Z,0.60
2022-12-27T06:37:19.510Z,0.70
2022-12-27T06:41:06.524Z,0.70
2022-12-27T06:48:30.470Z,0.68
2022-12-27T06:52:12.415Z,0.88
2022-12-27T06:55:56.728Z,0.75
2022-12-27T06:59:38.660Z,0.50
2022-12-27T07:03:20.679Z,0.63
2022-12-27T07:07:02.645Z,0.65
2022-12-27T07:10:44.665Z,0.90
2022-12-27T07:14:26.666Z,0.70
2022-12-27T07:18:08.678Z,0.85
2022-12-27T07:21:50.624Z,0.75
2022-12-27T07:25:32.737Z,0.82
2022-12-27T07:29:14.768Z,0.80
2022-12-27T07:32:56.807Z,1.13
2022-12-27T07:36:40.260Z,1.45
2022-12-27T07:40:22.389Z,0.90
2022-12-27T07:44:04.839Z,1.10
2022-12-27T07:47:46.817Z,1.08
2022-12-27T07:51:30.122Z,0.75
2022-12-27T07:55:12.133Z,0.93
2022-12-27T07:58:56.103Z,0.77
2022-12-27T08:02:38.093Z,1.00
2022-12-27T08:06:24.655Z,0.80
2022-12-27T08:10:07.412Z,0.70
2022-12-27T08:13:49.567Z,1.00
2022-12-27T08:17:34.591Z,0.98
2022-12-27T08:21:16.865Z,1.30
2022-12-27T08:24:58.869Z,1.30
2022-12-27T08:28:40.935Z,0.90
2022-12-27T08:32:23.358Z,0.80
2022-12-27T08:40:13.087Z,1.00
2022-12-27T08:43:55.052Z,1.55
2022-12-27T08:47:37.606Z,0.90
2022-12-27T08:51:31.387Z,0.80
2022-12-27T08:55:17.815Z,0.80
2022-12-27T08:58:59.786Z,0.90
2022-12-27T09:02:41.966Z,1.15
2022-12-27T09:06:25.851Z,0.98
2022-12-27T09:10:08.434Z,1.50
2022-12-27T09:13:50.892Z,2.65
2022-12-27T09:17:32.935Z,1.25
2022-12-27T09:21:17.191Z,1.33
2022-12-27T09:24:59.361Z,1.10
2022-12-27T09:28:42.285Z,0.88
2022-12-27T09:32:27.522Z,1.02
2022-12-27T09:36:22.819Z,1.00
2022-12-27T09:40:05.846Z,0.77
2022-12-27T09:44:13.138Z,0.93
2022-12-27T09:48:10.454Z,1.77
2022-12-27T09:51:58.279Z,0.80
2022-12-27T09:55:53.811Z,1.00
2022-12-27T09:59:45.483Z,0.95
2022-12-27T10:03:29.960Z,1.45
2022-12-27T10:07:19.156Z,0.93
2022-12-27T10:11:34.628Z,1.40
2022-12-27T10:15:48.391Z,0.98
2022-12-27T10:19:41.167Z,1.17
2022-12-27T10:23:30.357Z,1.65
2022-12-27T10:27:20.566Z,1.58
2022-12-27T10:31:04.329Z,1.23
2022-12-27T10:34:49.770Z,1.40
2022-12-27T10:38:38.412Z,1.20
2022-12-27T10:42:42.546Z,1.25
2022-12-27T10:46:32.998Z,1.55
2022-12-27T10:50:22.472Z,1.35
2022-12-27T10:54:28.805Z,1.77
2022-12-27T10:58:26.049Z,1.10
2022-12-27T11:06:04.349Z,1.80
2022-12-27T11:09:51.029Z,1.55
2022-12-27T11:13:33.383Z,0.93
2022-12-27T11:17:26.473Z,1.33
2022-12-27T11:21:23.915Z,1.30
2022-12-27T11:25:15.123Z,1.63
2022-12-27T11:29:01.936Z,1.40
2022-12-27T11:36:40.842Z,1.60
2022-12-27T11:40:30.687Z,1.50
2022-12-27T11:44:18.836Z,1.30
2022-12-27T11:48:11.244Z,1.20
2022-12-27T11:52:15.095Z,1.08
2022-12-27T11:56:30.233Z,1.10
2022-12-27T12:00:15.734Z,1.23
2022-12-27T12:04:34.945Z,1.20
2022-12-27T12:08:54.425Z,1.02
2022-12-27T12:12:45.433Z,1.17
2022-12-27T12:17:05.001Z,0.80
2022-12-27T12:20:59.523Z,1.00
2022-12-27T12:24:55.734Z,0.90
2022-12-27T12:28:59.247Z,0.97
2022-12-27T12:33:04.316Z,0.80
2022-12-27T12:37:02.342Z,1.00
2022-12-27T12:40:55.905Z,1.23
2022-12-27T12:45:16.895Z,0.98
2022-12-27T12:49:22.865Z,0.88
2022-12-27T12:53:26.714Z,1.80
2022-12-27T12:57:38.079Z,1.85
2022-12-27T13:01:37.123Z,2.70
2022-12-27T13:05:44.213Z,1.10
2022-12-27T13:09:59.755Z,2.42
2022-12-27T13:14:03.864Z,1.23
2022-12-27T13:18:08.359Z,1.70
2022-12-27T13:21:52.473Z,1.95
2022-12-27T13:26:01.419Z,1.23
2022-12-27T13:29:49.203Z,1.45
2022-12-27T13:33:49.292Z,1.50
2022-12-27T13:37:45.690Z,1.40
2022-12-27T13:41:58.249Z,1.48
2022-12-27T13:46:42.422Z,1.75
2022-12-27T13:50:42.786Z,1.40
2022-12-27T13:54:49.436Z,1.85
2022-12-27T13:58:56.290Z,1.70
2022-12-27T14:03:04.449Z,1.40
2022-12-27T14:07:17.062Z,1.50
2022-12-27T14:11:01.239Z,1.70
2022-12-27T14:14:45.645Z,1.08
2022-12-27T14:18:30.366Z,1.80
2022-12-27T14:22:36.942Z,1.55
2022-12-27T14:26:52.569Z,2.13
2022-12-27T14:31:03.112Z,1.40
2022-12-27T14:35:06.659Z,2.13
2022-12-27T14:39:03.841Z,1.83
2022-12-27T14:46:46.366Z,1.38
2022-12-27T14:51:00.236Z,1.70
2022-12-27T14:55:25.003Z,2.03
2022-12-27T14:59:06.924Z,1.42
2022-12-27T15:03:19.296Z,1.90
2022-12-27T15:07:39.365Z,1.77
2022-12-27T15:11:41.137Z,1.55
2022-12-27T15:15:54.386Z,2.08
2022-12-27T15:20:00.976Z,1.50
2022-12-27T15:23:54.866Z,1.95
2022-12-27T15:28:00.120Z,1.60
2022-12-27T15:31:47.959Z,1.70
2022-12-27T15:35:32.714Z,1.35
2022-12-27T15:39:33.171Z,1.67
2022-12-27T15:43:18.224Z,1.73
2022-12-27T15:47:09.191Z,2.00
2022-12-27T15:51:04.643Z,2.38
2022-12-27T15:55:05.159Z,1.95
2022-12-27T15:59:25.493Z,1.48
2022-12-27T16:03:32.155Z,1.50
2022-12-27T16:07:51.901Z,1.40
2022-12-27T16:12:10.688Z,1.70
2022-12-27T16:15:55.644Z,1.60
2022-12-27T16:19:55.028Z,1.73
2022-12-27T16:24:03.658Z,1.40
2022-12-27T16:27:45.771Z,1.63
2022-12-27T16:31:41.895Z,1.45
2022-12-27T16:35:27.737Z,1.80
2022-12-27T16:39:12.616Z,1.40
2022-12-27T16:42:54.551Z,1.52
2022-12-27T16:47:03.317Z,1.15
2022-12-27T16:50:54.455Z,0.98
2022-12-27T16:54:57.907Z,1.10
2022-12-27T16:58:40.151Z,1.08
2022-12-27T17:02:48.939Z,0.98
2022-12-27T17:06:32.337Z,1.00
2022-12-27T17:10:27.757Z,1.17
2022-12-27T17:14:16.541Z,1.17
2022-12-27T17:18:09.207Z,1.48
2022-12-27T17:21:58.191Z,1.52
2022-12-27T17:25:52.892Z,1.40
2022-12-27T17:29:53.372Z,1.90
2022-12-27T17:34:04.172Z,1.42
2022-12-27T17:38:04.716Z,1.63
2022-12-27T17:42:37.521Z,1.67
2022-12-27T17:46:25.394Z,4.28
2022-12-27T17:50:18.142Z,2.13
2022-12-27T17:54:18.887Z,2.08
2022-12-27T17:58:05.199Z,1.95
2022-12-27T18:01:52.658Z,1.85
2022-12-27T18:05:40.533Z,1.90
2022-12-27T18:09:32.855Z,1.40
2022-12-27T18:13:19.702Z,1.67
2022-12-27T18:20:43.991Z,2.08
2022-12-27T18:24:29.080Z,1.65
2022-12-27T18:28:32.436Z,1.40
2022-12-27T18:32:17.747Z,1.35
2022-12-27T18:36:02.949Z,1.60
2022-12-27T18:40:00.879Z,1.60
2022-12-27T18:43:48.370Z,1.60
2022-12-27T18:47:32.973Z,1.45
2022-12-27T18:51:15.175Z,1.83
2022-12-27T18:55:16.365Z,1.77
2022-12-27T18:59:16.447Z,1.52
2022-12-27T19:03:15.862Z,1.40
2022-12-27T19:07:07.988Z,1.45
2022-12-27T19:10:51.731Z,1.20
2022-12-27T19:14:45.351Z,1.50
2022-12-27T19:18:34.792Z,1.30
2022-12-27T19:22:40.464Z,1.65
2022-12-27T19:26:32.746Z,1.58
2022-12-27T19:30:44.081Z,1.17
2022-12-27T19:34:43.906Z,1.60
2022-12-27T19:38:28.627Z,0.93
2022-12-27T19:42:18.456Z,1.10
2022-12-27T19:46:00.512Z,1.55
2022-12-27T19:49:45.169Z,2.63
2022-12-27T19:53:38.676Z,2.00
2022-12-27T19:57:22.484Z,3.25
2022-12-27T20:01:04.588Z,1.30
2022-12-27T20:04:46.596Z,1.20
2022-12-27T20:08:33.258Z,1.33
2022-12-27T20:12:15.374Z,0.80
2022-12-27T20:15:59.018Z,1.20
2022-12-27T20:19:40.971Z,0.65
2022-12-27T20:23:23.172Z,0.70
2022-12-27T20:27:06.016Z,0.73
2022-12-27T20:30:48.757Z,0.95
2022-12-27T20:34:30.745Z,1.13
2022-12-27T20:38:12.766Z,0.70
2022-12-27T20:41:56.324Z,0.70
2022-12-27T20:45:38.358Z,0.77
2022-12-27T20:49:20.337Z,0.43
2022-12-27T20:53:02.364Z,0.50
2022-12-27T20:56:44.377Z,0.70
2022-12-27T21:00:26.462Z,0.77
2022-12-27T21:04:09.784Z,1.15
2022-12-27T21:07:51.792Z,0.80
2022-12-27T21:11:33.917Z,0.75
2022-12-27T21:15:15.959Z,0.52
2022-12-27T21:18:58.611Z,0.50
2022-12-27T21:22:40.652Z,0.80
2022-12-27T21:26:25.379Z,0.52
2022-12-27T21:30:08.235Z,0.60
2022-12-27T21:33:50.771Z,0.63
2022-12-27T21:37:32.742Z,0.60
2022-12-27T21:41:18.190Z,0.38
2022-12-27T21:45:00.170Z,0.80
2022-12-27T21:48:42.715Z,1.17
2022-12-27T21:52:24.720Z,0.80
2022-12-27T21:56:07.985Z,0.90
2022-12-27T21:59:49.934Z,0.65
2022-12-27T22:03:36.913Z,1.00
2022-12-27T22:07:19.060Z,0.90
2022-12-27T22:11:00.983Z,0.77
2022-12-27T22:14:44.352Z,0.90
2022-12-27T22:18:26.579Z,0.70
2022-12-27T22:22:08.511Z,1.25
2022-12-27T22:25:50.473Z,0.70
2022-12-27T22:29:35.420Z,1.25
2022-12-27T22:33:17.632Z,0.57
2022-12-27T22:36:59.639Z,1.15
2022-12-27T22:40:46.120Z,0.50
2022-12-27T22:44:29.011Z,0.60
2022-12-27T22:48:10.978Z,1.30
2022-12-27T22:51:53.156Z,0.50
2022-12-27T22:55:35.138Z,0.93
2022-12-27T22:59:17.176Z,0.50
2022-12-27T23:02:59.119Z,0.40
2022-12-27T23:06:42.345Z,0.50
2022-12-27T23:10:24.382Z,1.33
2022-12-27T23:14:11.144Z,0.80
2022-12-27T23:21:35.488Z,0.75
2022-12-27T23:25:17.456Z,0.63
2022-12-27T23:28:59.797Z,0.60
2022-12-27T23:32:41.748Z,0.40
2022-12-27T23:36:24.039Z,0.80
2022-12-27T23:40:06.770Z,0.90
2022-12-27T23:43:52.646Z,0.40
2022-12-27T23:47:35.059Z,0.90
2022-12-27T23:51:17.292Z,0.47
2022-12-27T23:54:59.436Z,0.30
2022-12-27T23:58:41.462Z,0.30
